sensor_id;sensor_type;location;lat;lon;timestamp;pressure;altitude;pressure_sealevel;temperature;humidity
2681;BME280;1350;42.134;24.708;2023-06-22T00:01:45;99594.53;;;24.34;100.00
2681;BME280;1350;42.134;24.708;2023-06-22T00:04:12;99595.72;;;24.32;100.00
2681;BME280;1350;42.134;24.708;2023-06-22T00:06:39;99603.53;;;24.35;100.00
2681;BME280;1350;42.134;24.708;2023-06-22T00:09:06;99605.34;;;24.26;100.00
2681;BME280;1350;42.134;24.708;2023-06-22T00:11:33;99603.34;;;24.28;100.00
2681;BME280;1350;42.134;24.708;2023-06-22T00:14:01;99602.16;;;24.23;100.00
2681;BME280;1350;42.134;24.708;2023-06-22T00:16:28;99604.34;;;24.27;100.00
2681;BME280;1350;42.134;24.708;2023-06-22T00:18:54;99606.19;;;24.19;100.00
2681;BME280;1350;42.134;24.708;2023-06-22T00:21:21;99601.25;;;24.06;100.00
2681;BME280;1350;42.134;24.708;2023-06-22T00:23:48;99617.19;;;24.17;100.00
2681;BME280;1350;42.134;24.708;2023-06-22T00:26:14;99615.31;;;24.10;100.00
2681;BME280;1350;42.134;24.708;2023-06-22T00:28:42;99620.75;;;24.18;100.00
2681;BME280;1350;42.134;24.708;2023-06-22T00:31:10;99624.00;;;24.21;100.00
2681;BME280;1350;42.134;24.708;2023-06-22T00:33:37;99618.88;;;23.77;100.00
2681;BME280;1350;42.134;24.708;2023-06-22T00:36:04;99613.06;;;23.64;100.00
2681;BME280;1350;42.134;24.708;2023-06-22T00:38:31;99628.47;;;23.63;100.00
2681;BME280;1350;42.134;24.708;2023-06-22T00:40:58;99632.81;;;23.56;100.00
2681;BME280;1350;42.134;24.708;2023-06-22T00:43:25;99635.00;;;23.53;100.00
2681;BME280;1350;42.134;24.708;2023-06-22T00:45:52;99627.34;;;23.48;100.00
2681;BME280;1350;42.134;24.708;2023-06-22T00:48:20;99631.94;;;23.48;100.00
2681;BME280;1350;42.134;24.708;2023-06-22T00:50:47;99635.00;;;23.53;100.00
2681;BME280;1350;42.134;24.708;2023-06-22T00:53:16;99629.47;;;23.62;100.00
2681;BME280;1350;42.134;24.708;2023-06-22T00:55:44;99624.41;;;23.67;100.00
2681;BME280;1350;42.134;24.708;2023-06-22T00:58:12;99621.72;;;23.67;100.00
2681;BME280;1350;42.134;24.708;2023-06-22T01:00:40;99618.84;;;23.69;100.00
2681;BME280;1350;42.134;24.708;2023-06-22T01:03:07;99612.41;;;23.62;100.00
2681;BME280;1350;42.134;24.708;2023-06-22T01:05:36;99625.22;;;23.60;100.00
2681;BME280;1350;42.134;24.708;2023-06-22T01:08:16;99624.31;;;23.51;100.00
2681;BME280;1350;42.134;24.708;2023-06-22T01:10:49;99627.94;;;23.60;100.00
2681;BME280;1350;42.134;24.708;2023-06-22T01:13:27;99630.75;;;23.50;100.00
2681;BME280;1350;42.134;24.708;2023-06-22T01:16:01;99632.81;;;23.56;100.00
2681;BME280;1350;42.134;24.708;2023-06-22T01:18:30;99635.44;;;23.40;100.00
2681;BME280;1350;42.134;24.708;2023-06-22T01:21:00;99631.72;;;23.41;100.00
2681;BME280;1350;42.134;24.708;2023-06-22T01:23:42;99624.03;;;23.28;100.00
2681;BME280;1350;42.134;24.708;2023-06-22T01:26:18;99629.88;;;23.24;100.00
2681;BME280;1350;42.134;24.708;2023-06-22T01:28:50;99622.03;;;23.31;100.00
2681;BME280;1350;42.134;24.708;2023-06-22T01:31:19;99623.16;;;23.28;100.00
2681;BME280;1350;42.134;24.708;2023-06-22T01:33:49;99618.34;;;23.14;100.00
2681;BME280;1350;42.134;24.708;2023-06-22T01:36:17;99621.06;;;23.22;100.00
2681;BME280;1350;42.134;24.708;2023-06-22T01:38:47;99617.69;;;23.20;100.00
2681;BME280;1350;42.134;24.708;2023-06-22T01:41:14;99614.44;;;23.16;100.00
2681;BME280;1350;42.134;24.708;2023-06-22T01:43:42;99611.44;;;23.02;100.00
2681;BME280;1350;42.134;24.708;2023-06-22T01:46:10;99615.25;;;23.09;100.00
2681;BME280;1350;42.134;24.708;2023-06-22T01:48:38;99607.38;;;22.98;100.00
2681;BME280;1350;42.134;24.708;2023-06-22T01:51:05;99608.72;;;22.94;100.00
2681;BME280;1350;42.134;24.708;2023-06-22T01:53:32;99612.28;;;22.77;100.00
2681;BME280;1350;42.134;24.708;2023-06-22T01:55:59;99615.75;;;22.87;100.00
2681;BME280;1350;42.134;24.708;2023-06-22T01:58:28;99621.16;;;22.87;100.00
2681;BME280;1350;42.134;24.708;2023-06-22T02:00:58;99621.00;;;22.88;100.00
2681;BME280;1350;42.134;24.708;2023-06-22T02:03:33;99634.28;;;22.82;100.00
2681;BME280;1350;42.134;24.708;2023-06-22T02:06:05;99631.38;;;22.75;100.00
2681;BME280;1350;42.134;24.708;2023-06-22T02:08:39;99622.94;;;22.61;100.00
2681;BME280;1350;42.134;24.708;2023-06-22T02:11:07;99620.47;;;22.67;100.00
2681;BME280;1350;42.134;24.708;2023-06-22T02:13:36;99621.03;;;22.71;100.00
2681;BME280;1350;42.134;24.708;2023-06-22T02:16:03;99615.63;;;22.71;100.00
2681;BME280;1350;42.134;24.708;2023-06-22T02:18:31;99611.22;;;22.52;100.00
2681;BME280;1350;42.134;24.708;2023-06-22T02:21:01;99613.97;;;22.43;100.00
2681;BME280;1350;42.134;24.708;2023-06-22T02:23:27;99612.47;;;22.48;100.00
2681;BME280;1350;42.134;24.708;2023-06-22T02:25:54;99621.88;;;22.54;100.00
2681;BME280;1350;42.134;24.708;2023-06-22T02:28:21;99621.41;;;22.58;100.00
2681;BME280;1350;42.134;24.708;2023-06-22T02:30:48;99625.56;;;22.53;100.00
2681;BME280;1350;42.134;24.708;2023-06-22T02:33:14;99635.97;;;22.48;100.00
2681;BME280;1350;42.134;24.708;2023-06-22T02:35:42;99627.31;;;22.44;100.00
2681;BME280;1350;42.134;24.708;2023-06-22T02:38:11;99628.84;;;22.47;100.00
2681;BME280;1350;42.134;24.708;2023-06-22T02:40:38;99630.41;;;22.32;100.00
2681;BME280;1350;42.134;24.708;2023-06-22T02:43:04;99637.13;;;22.28;100.00
2681;BME280;1350;42.134;24.708;2023-06-22T02:45:31;99642.06;;;22.32;100.00
2681;BME280;1350;42.134;24.708;2023-06-22T02:47:58;99641.25;;;22.22;100.00
2681;BME280;1350;42.134;24.708;2023-06-22T02:50:25;99639.03;;;22.18;100.00
2681;BME280;1350;42.134;24.708;2023-06-22T02:52:53;99638.53;;;22.05;100.00
2681;BME280;1350;42.134;24.708;2023-06-22T02:55:19;99645.09;;;22.02;100.00
2681;BME280;1350;42.134;24.708;2023-06-22T02:57:46;99646.50;;;22.06;100.00
2681;BME280;1350;42.134;24.708;2023-06-22T03:00:14;99648.13;;;22.17;100.00
2681;BME280;1350;42.134;24.708;2023-06-22T03:02:43;99648.91;;;22.09;100.00
2681;BME280;1350;42.134;24.708;2023-06-22T03:05:11;99652.44;;;22.10;100.00
2681;BME280;1350;42.134;24.708;2023-06-22T03:07:40;99652.97;;;21.96;100.00
2681;BME280;1350;42.134;24.708;2023-06-22T03:10:09;99660.69;;;21.81;100.00
2681;BME280;1350;42.134;24.708;2023-06-22T03:12:36;99659.03;;;21.98;100.00
2681;BME280;1350;42.134;24.708;2023-06-22T03:15:05;99649.97;;;21.99;100.00
2681;BME280;1350;42.134;24.708;2023-06-22T03:17:33;99662.94;;;22.13;100.00
2681;BME280;1350;42.134;24.708;2023-06-22T03:20:00;99658.59;;;22.02;100.00
2681;BME280;1350;42.134;24.708;2023-06-22T03:22:31;99669.75;;;22.17;100.00
2681;BME280;1350;42.134;24.708;2023-06-22T03:24:58;99670.31;;;22.20;100.00
2681;BME280;1350;42.134;24.708;2023-06-22T03:27:26;99675.63;;;22.30;100.00
2681;BME280;1350;42.134;24.708;2023-06-22T03:29:53;99676.75;;;22.37;100.00
2681;BME280;1350;42.134;24.708;2023-06-22T03:32:19;99673.28;;;22.17;100.00
2681;BME280;1350;42.134;24.708;2023-06-22T03:34:46;99678.72;;;22.35;100.00
2681;BME280;1350;42.134;24.708;2023-06-22T03:37:13;99675.31;;;22.33;100.00
2681;BME280;1350;42.134;24.708;2023-06-22T03:39:40;99677.41;;;22.39;100.00
2681;BME280;1350;42.134;24.708;2023-06-22T03:42:07;99678.66;;;22.44;100.00
2681;BME280;1350;42.134;24.708;2023-06-22T03:44:36;99687.50;;;22.46;100.00
2681;BME280;1350;42.134;24.708;2023-06-22T03:47:03;99681.22;;;22.46;100.00
2681;BME280;1350;42.134;24.708;2023-06-22T03:49:32;99678.44;;;22.38;100.00
2681;BME280;1350;42.134;24.708;2023-06-22T03:51:59;99682.50;;;22.24;100.00
2681;BME280;1350;42.134;24.708;2023-06-22T03:54:26;99676.75;;;22.37;100.00
2681;BME280;1350;42.134;24.708;2023-06-22T03:56:55;99678.34;;;22.57;100.00
2681;BME280;1350;42.134;24.708;2023-06-22T03:59:22;99668.44;;;22.65;100.00
2681;BME280;1350;42.134;24.708;2023-06-22T04:01:50;99671.63;;;22.78;100.00
2681;BME280;1350;42.134;24.708;2023-06-22T04:04:18;99676.25;;;22.86;100.00
2681;BME280;1350;42.134;24.708;2023-06-22T04:06:44;99667.81;;;22.89;100.00
2681;BME280;1350;42.134;24.708;2023-06-22T04:09:11;99671.91;;;23.10;100.00
2681;BME280;1350;42.134;24.708;2023-06-22T04:11:38;99677.69;;;23.33;100.00
2681;BME280;1350;42.134;24.708;2023-06-22T04:14:06;99670.56;;;23.32;100.00
2681;BME280;1350;42.134;24.708;2023-06-22T04:16:33;99673.53;;;23.47;100.00
2681;BME280;1350;42.134;24.708;2023-06-22T04:19:01;99675.34;;;23.64;100.00
2681;BME280;1350;42.134;24.708;2023-06-22T04:21:28;99679.59;;;23.66;100.00
2681;BME280;1350;42.134;24.708;2023-06-22T04:23:54;99680.09;;;23.70;100.00
2681;BME280;1350;42.134;24.708;2023-06-22T04:26:21;99687.72;;;23.66;100.00
2681;BME280;1350;42.134;24.708;2023-06-22T04:28:48;99686.66;;;23.85;100.00
2681;BME280;1350;42.134;24.708;2023-06-22T04:31:17;99681.81;;;23.71;100.00
2681;BME280;1350;42.134;24.708;2023-06-22T04:33:43;99688.47;;;24.10;100.00
2681;BME280;1350;42.134;24.708;2023-06-22T04:36:11;99688.75;;;24.32;100.00
2681;BME280;1350;42.134;24.708;2023-06-22T04:38:38;99686.97;;;24.57;100.00
2681;BME280;1350;42.134;24.708;2023-06-22T04:41:05;99699.25;;;24.77;100.00
2681;BME280;1350;42.134;24.708;2023-06-22T04:43:34;99700.59;;;24.97;100.00
2681;BME280;1350;42.134;24.708;2023-06-22T04:46:01;99694.66;;;25.18;100.00
2681;BME280;1350;42.134;24.708;2023-06-22T04:48:29;99696.41;;;25.43;99.81
2681;BME280;1350;42.134;24.708;2023-06-22T04:50:58;99691.44;;;25.62;97.92
2681;BME280;1350;42.134;24.708;2023-06-22T04:53:31;99699.50;;;25.86;96.83
2681;BME280;1350;42.134;24.708;2023-06-22T04:55:58;99691.69;;;26.07;94.70
2681;BME280;1350;42.134;24.708;2023-06-22T04:58:25;99683.22;;;26.33;93.38
2681;BME280;1350;42.134;24.708;2023-06-22T05:00:54;99677.97;;;26.62;91.95
2681;BME280;1350;42.134;24.708;2023-06-22T05:03:22;99672.28;;;27.02;89.57
2681;BME280;1350;42.134;24.708;2023-06-22T05:05:51;99672.25;;;27.25;87.71
2681;BME280;1350;42.134;24.708;2023-06-22T05:08:19;99673.19;;;27.40;86.61
2681;BME280;1350;42.134;24.708;2023-06-22T05:10:47;99671.13;;;27.71;85.36
2681;BME280;1350;42.134;24.708;2023-06-22T05:13:13;99673.22;;;27.83;84.45
2681;BME280;1350;42.134;24.708;2023-06-22T05:15:40;99674.50;;;27.44;86.39
2681;BME280;1350;42.134;24.708;2023-06-22T05:18:07;99679.38;;;27.34;88.35
2681;BME280;1350;42.134;24.708;2023-06-22T05:20:34;99679.69;;;27.53;87.78
2681;BME280;1350;42.134;24.708;2023-06-22T05:23:01;99683.41;;;28.04;85.56
2681;BME280;1350;42.134;24.708;2023-06-22T05:25:28;99670.78;;;28.18;83.16
2681;BME280;1350;42.134;24.708;2023-06-22T05:27:59;99668.50;;;28.36;82.65
2681;BME280;1350;42.134;24.708;2023-06-22T05:30:27;99673.00;;;28.58;79.53
2681;BME280;1350;42.134;24.708;2023-06-22T05:32:53;99669.91;;;28.82;78.38
2681;BME280;1350;42.134;24.708;2023-06-22T05:35:20;99679.63;;;29.05;76.12
2681;BME280;1350;42.134;24.708;2023-06-22T05:37:47;99679.28;;;29.36;73.52
2681;BME280;1350;42.134;24.708;2023-06-22T05:40:14;99680.22;;;29.49;71.45
2681;BME280;1350;42.134;24.708;2023-06-22T05:42:41;99680.09;;;29.57;69.81
2681;BME280;1350;42.134;24.708;2023-06-22T05:45:09;99674.84;;;29.84;67.10
2681;BME280;1350;42.134;24.708;2023-06-22T05:47:36;99677.69;;;29.69;65.03
2681;BME280;1350;42.134;24.708;2023-06-22T05:50:04;99676.81;;;29.96;64.55
2681;BME280;1350;42.134;24.708;2023-06-22T05:52:32;99678.16;;;30.13;63.82
2681;BME280;1350;42.134;24.708;2023-06-22T05:54:59;99678.00;;;30.68;63.30
2681;BME280;1350;42.134;24.708;2023-06-22T05:57:25;99675.16;;;30.96;62.63
2681;BME280;1350;42.134;24.708;2023-06-22T05:59:52;99686.13;;;30.96;60.79
2681;BME280;1350;42.134;24.708;2023-06-22T06:02:20;99683.56;;;30.88;59.57
2681;BME280;1350;42.134;24.708;2023-06-22T06:04:47;99684.94;;;30.71;60.18
2681;BME280;1350;42.134;24.708;2023-06-22T06:07:16;99683.59;;;30.94;60.14
2681;BME280;1350;42.134;24.708;2023-06-22T06:09:43;99682.38;;;31.30;57.64
2681;BME280;1350;42.134;24.708;2023-06-22T06:12:10;99680.47;;;31.76;57.27
2681;BME280;1350;42.134;24.708;2023-06-22T06:14:36;99684.03;;;32.02;56.24
2681;BME280;1350;42.134;24.708;2023-06-22T06:17:03;99683.56;;;32.18;55.15
2681;BME280;1350;42.134;24.708;2023-06-22T06:19:31;99688.44;;;32.16;54.17
2681;BME280;1350;42.134;24.708;2023-06-22T06:21:58;99684.38;;;32.38;53.47
2681;BME280;1350;42.134;24.708;2023-06-22T06:24:26;99674.16;;;31.88;54.14
2681;BME280;1350;42.134;24.708;2023-06-22T06:26:53;99682.81;;;31.92;54.30
2681;BME280;1350;42.134;24.708;2023-06-22T06:29:19;99679.09;;;32.37;53.73
2681;BME280;1350;42.134;24.708;2023-06-22T06:31:46;99670.81;;;32.50;52.55
2681;BME280;1350;42.134;24.708;2023-06-22T06:34:13;99678.28;;;32.23;53.00
2681;BME280;1350;42.134;24.708;2023-06-22T06:36:41;99676.53;;;32.42;52.79
2681;BME280;1350;42.134;24.708;2023-06-22T06:39:08;99668.28;;;32.48;52.29
2681;BME280;1350;42.134;24.708;2023-06-22T06:41:35;99679.28;;;32.93;51.54
2681;BME280;1350;42.134;24.708;2023-06-22T06:44:01;99667.38;;;33.30;51.37
2681;BME280;1350;42.134;24.708;2023-06-22T06:46:28;99668.81;;;33.39;50.01
2681;BME280;1350;42.134;24.708;2023-06-22T06:48:55;99665.00;;;33.09;50.41
2681;BME280;1350;42.134;24.708;2023-06-22T06:51:22;99667.16;;;33.00;49.43
2681;BME280;1350;42.134;24.708;2023-06-22T06:53:50;99664.88;;;33.53;49.91
2681;BME280;1350;42.134;24.708;2023-06-22T06:56:17;99677.94;;;33.82;49.06
2681;BME280;1350;42.134;24.708;2023-06-22T06:58:43;99665.75;;;33.96;49.69
2681;BME280;1350;42.134;24.708;2023-06-22T07:01:10;99672.94;;;33.97;48.69
2681;BME280;1350;42.134;24.708;2023-06-22T07:03:37;99674.41;;;33.99;48.80
2681;BME280;1350;42.134;24.708;2023-06-22T07:06:04;99669.59;;;34.49;48.23
2681;BME280;1350;42.134;24.708;2023-06-22T07:08:30;99677.63;;;34.33;48.59
2681;BME280;1350;42.134;24.708;2023-06-22T07:10:59;99671.16;;;34.75;47.54
2681;BME280;1350;42.134;24.708;2023-06-22T07:13:26;99664.31;;;34.95;46.96
2681;BME280;1350;42.134;24.708;2023-06-22T07:15:53;99668.06;;;34.53;46.56
2681;BME280;1350;42.134;24.708;2023-06-22T07:18:19;99670.44;;;34.13;46.96
2681;BME280;1350;42.134;24.708;2023-06-22T07:20:46;99675.78;;;33.90;47.43
2681;BME280;1350;42.134;24.708;2023-06-22T07:23:13;99671.25;;;33.53;47.98
2681;BME280;1350;42.134;24.708;2023-06-22T07:25:39;99670.41;;;33.71;47.76
2681;BME280;1350;42.134;24.708;2023-06-22T07:28:08;99677.16;;;34.17;47.16
2681;BME280;1350;42.134;24.708;2023-06-22T07:30:34;99667.16;;;34.41;46.55
2681;BME280;1350;42.134;24.708;2023-06-22T07:33:01;99676.56;;;34.52;46.35
2681;BME280;1350;42.134;24.708;2023-06-22T07:35:29;99677.41;;;34.82;46.61
2681;BME280;1350;42.134;24.708;2023-06-22T07:37:56;99673.88;;;35.34;45.30
2681;BME280;1350;42.134;24.708;2023-06-22T07:40:23;99675.75;;;35.51;44.18
2681;BME280;1350;42.134;24.708;2023-06-22T07:42:50;99673.00;;;35.63;43.68
2681;BME280;1350;42.134;24.708;2023-06-22T07:45:18;99677.56;;;35.81;43.86
2681;BME280;1350;42.134;24.708;2023-06-22T07:47:45;99674.22;;;36.02;42.43
2681;BME280;1350;42.134;24.708;2023-06-22T07:50:11;99677.06;;;36.41;41.62
2681;BME280;1350;42.134;24.708;2023-06-22T07:52:38;99673.09;;;36.49;41.32
2681;BME280;1350;42.134;24.708;2023-06-22T07:55:05;99665.53;;;36.44;41.35
2681;BME280;1350;42.134;24.708;2023-06-22T07:57:32;99669.28;;;36.78;41.83
2681;BME280;1350;42.134;24.708;2023-06-22T07:59:59;99667.69;;;37.10;40.23
2681;BME280;1350;42.134;24.708;2023-06-22T08:02:28;99667.69;;;37.10;40.35
2681;BME280;1350;42.134;24.708;2023-06-22T08:04:54;99664.22;;;37.31;40.02
2681;BME280;1350;42.134;24.708;2023-06-22T08:07:21;99663.59;;;36.84;40.14
2681;BME280;1350;42.134;24.708;2023-06-22T08:09:48;99660.25;;;36.82;39.90
2681;BME280;1350;42.134;24.708;2023-06-22T08:12:15;99657.25;;;36.72;41.57
2681;BME280;1350;42.134;24.708;2023-06-22T08:14:43;99647.72;;;36.52;43.28
2681;BME280;1350;42.134;24.708;2023-06-22T08:17:11;99647.13;;;36.50;42.43
2681;BME280;1350;42.134;24.708;2023-06-22T08:19:40;99642.28;;;36.06;44.91
2681;BME280;1350;42.134;24.708;2023-06-22T08:22:07;99647.09;;;36.10;42.42
2681;BME280;1350;42.134;24.708;2023-06-22T08:24:34;99645.16;;;35.76;44.45
2681;BME280;1350;42.134;24.708;2023-06-22T08:27:00;99644.94;;;36.01;44.16
2681;BME280;1350;42.134;24.708;2023-06-22T08:29:27;99633.50;;;36.09;41.55
2681;BME280;1350;42.134;24.708;2023-06-22T08:31:54;99634.13;;;35.76;42.42
2681;BME280;1350;42.134;24.708;2023-06-22T08:34:20;99636.03;;;35.52;43.09
2681;BME280;1350;42.134;24.708;2023-06-22T08:36:49;99630.16;;;35.60;43.69
2681;BME280;1350;42.134;24.708;2023-06-22T08:39:17;99627.97;;;35.74;40.68
2681;BME280;1350;42.134;24.708;2023-06-22T08:41:43;99629.94;;;35.85;41.32
2681;BME280;1350;42.134;24.708;2023-06-22T08:44:10;99620.06;;;35.66;41.49
2681;BME280;1350;42.134;24.708;2023-06-22T08:46:37;99625.94;;;35.69;41.22
2681;BME280;1350;42.134;24.708;2023-06-22T08:49:06;99622.00;;;35.54;42.75
2681;BME280;1350;42.134;24.708;2023-06-22T08:51:33;99625.84;;;35.53;41.60
2681;BME280;1350;42.134;24.708;2023-06-22T08:54:01;99623.25;;;35.28;41.08
2681;BME280;1350;42.134;24.708;2023-06-22T08:56:28;99630.31;;;35.13;40.32
2681;BME280;1350;42.134;24.708;2023-06-22T08:58:55;99634.94;;;35.42;39.18
2681;BME280;1350;42.134;24.708;2023-06-22T09:01:21;99621.66;;;35.85;39.73
2681;BME280;1350;42.134;24.708;2023-06-22T09:03:48;99623.06;;;35.99;38.93
2681;BME280;1350;42.134;24.708;2023-06-22T09:06:19;99628.56;;;36.11;40.68
2681;BME280;1350;42.134;24.708;2023-06-22T09:08:46;99629.28;;;36.06;39.43
2681;BME280;1350;42.134;24.708;2023-06-22T09:11:14;99623.97;;;36.39;39.39
2681;BME280;1350;42.134;24.708;2023-06-22T09:13:41;99628.16;;;36.70;38.80
2681;BME280;1350;42.134;24.708;2023-06-22T09:16:08;99625.78;;;36.62;38.24
2681;BME280;1350;42.134;24.708;2023-06-22T09:18:35;99624.28;;;35.92;37.68
2681;BME280;1350;42.134;24.708;2023-06-22T09:21:02;99617.91;;;35.80;38.31
2681;BME280;1350;42.134;24.708;2023-06-22T09:23:29;99609.16;;;35.71;37.49
2681;BME280;1350;42.134;24.708;2023-06-22T09:25:56;99621.63;;;35.62;37.21
2681;BME280;1350;42.134;24.708;2023-06-22T09:28:24;99613.38;;;35.73;37.70
2681;BME280;1350;42.134;24.708;2023-06-22T09:30:51;99615.06;;;34.99;37.95
2681;BME280;1350;42.134;24.708;2023-06-22T09:33:24;99607.47;;;35.35;37.28
2681;BME280;1350;42.134;24.708;2023-06-22T09:35:51;99606.31;;;34.72;36.86
2681;BME280;1350;42.134;24.708;2023-06-22T09:38:18;99603.09;;;35.16;37.58
2681;BME280;1350;42.134;24.708;2023-06-22T09:40:44;99598.13;;;35.59;36.75
2681;BME280;1350;42.134;24.708;2023-06-22T09:43:11;99606.88;;;35.68;36.19
2681;BME280;1350;42.134;24.708;2023-06-22T09:45:40;99606.88;;;35.68;36.25
2681;BME280;1350;42.134;24.708;2023-06-22T09:48:06;99601.47;;;35.50;37.45
2681;BME280;1350;42.134;24.708;2023-06-22T09:50:35;99605.25;;;35.03;37.28
2681;BME280;1350;42.134;24.708;2023-06-22T09:53:01;99601.91;;;35.24;38.54
2681;BME280;1350;42.134;24.708;2023-06-22T09:55:28;99606.16;;;35.61;37.27
2681;BME280;1350;42.134;24.708;2023-06-22T09:57:55;99608.66;;;35.74;37.43
2681;BME280;1350;42.134;24.708;2023-06-22T10:00:22;99596.63;;;36.03;37.73
2681;BME280;1350;42.134;24.708;2023-06-22T10:02:50;99596.75;;;36.20;37.71
2681;BME280;1350;42.134;24.708;2023-06-22T10:05:17;99596.94;;;35.44;37.54
2681;BME280;1350;42.134;24.708;2023-06-22T10:07:43;99590.94;;;35.47;37.84
2681;BME280;1350;42.134;24.708;2023-06-22T10:10:11;99589.94;;;35.41;37.74
2681;BME280;1350;42.134;24.708;2023-06-22T10:12:41;99589.03;;;34.95;37.64
2681;BME280;1350;42.134;24.708;2023-06-22T10:15:09;99591.66;;;34.90;37.39
2681;BME280;1350;42.134;24.708;2023-06-22T10:17:36;99588.25;;;35.29;36.76
2681;BME280;1350;42.134;24.708;2023-06-22T10:20:06;99589.44;;;35.67;36.05
2681;BME280;1350;42.134;24.708;2023-06-22T10:22:37;99583.69;;;35.69;36.60
2681;BME280;1350;42.134;24.708;2023-06-22T10:25:04;99577.28;;;34.99;37.31
2681;BME280;1350;42.134;24.708;2023-06-22T10:27:31;99574.94;;;34.85;38.36
2681;BME280;1350;42.134;24.708;2023-06-22T10:29:58;99582.69;;;34.94;37.08
2681;BME280;1350;42.134;24.708;2023-06-22T10:32:25;99578.75;;;35.13;36.72
2681;BME280;1350;42.134;24.708;2023-06-22T10:34:53;99566.88;;;35.13;37.23
2681;BME280;1350;42.134;24.708;2023-06-22T10:37:22;99559.72;;;35.46;37.09
2681;BME280;1350;42.134;24.708;2023-06-22T10:39:49;99555.72;;;35.77;37.20
2681;BME280;1350;42.134;24.708;2023-06-22T10:42:15;99561.84;;;35.67;36.94
2681;BME280;1350;42.134;24.708;2023-06-22T10:44:42;99555.13;;;35.98;36.63
2681;BME280;1350;42.134;24.708;2023-06-22T10:47:09;99553.09;;;35.70;36.84
2681;BME280;1350;42.134;24.708;2023-06-22T10:49:37;99551.19;;;35.83;36.78
2681;BME280;1350;42.134;24.708;2023-06-22T10:52:05;99546.13;;;35.68;37.67
2681;BME280;1350;42.134;24.708;2023-06-22T10:54:34;99546.25;;;35.61;37.37
2681;BME280;1350;42.134;24.708;2023-06-22T10:57:02;99537.84;;;35.68;36.94
2681;BME280;1350;42.134;24.708;2023-06-22T10:59:29;99541.88;;;36.00;36.81
2681;BME280;1350;42.134;24.708;2023-06-22T11:01:56;99535.28;;;36.41;36.19
2681;BME280;1350;42.134;24.708;2023-06-22T11:04:23;99530.69;;;36.63;35.75
2681;BME280;1350;42.134;24.708;2023-06-22T11:06:50;99534.09;;;36.37;36.06
2681;BME280;1350;42.134;24.708;2023-06-22T11:09:17;99533.63;;;36.28;36.18
2681;BME280;1350;42.134;24.708;2023-06-22T11:11:48;99525.25;;;35.72;36.15
2681;BME280;1350;42.134;24.708;2023-06-22T11:14:15;99532.59;;;35.43;37.06
2681;BME280;1350;42.134;24.708;2023-06-22T11:16:42;99521.91;;;35.70;38.70
2681;BME280;1350;42.134;24.708;2023-06-22T11:19:09;99523.94;;;35.63;37.83
2681;BME280;1350;42.134;24.708;2023-06-22T11:21:36;99530.69;;;35.44;37.62
2681;BME280;1350;42.134;24.708;2023-06-22T11:24:02;99531.75;;;35.54;38.59
2681;BME280;1350;42.134;24.708;2023-06-22T11:26:29;99525.50;;;35.59;38.33
2681;BME280;1350;42.134;24.708;2023-06-22T11:28:58;99523.34;;;35.84;37.94
2681;BME280;1350;42.134;24.708;2023-06-22T11:31:25;99524.28;;;35.66;37.94
2681;BME280;1350;42.134;24.708;2023-06-22T11:33:52;99527.53;;;35.17;37.05
2681;BME280;1350;42.134;24.708;2023-06-22T11:36:19;99527.66;;;34.99;37.83
2681;BME280;1350;42.134;24.708;2023-06-22T11:38:46;99525.78;;;34.82;37.93
2681;BME280;1350;42.134;24.708;2023-06-22T11:41:13;99523.63;;;34.72;38.18
2681;BME280;1350;42.134;24.708;2023-06-22T11:43:39;99533.31;;;34.63;38.20
2681;BME280;1350;42.134;24.708;2023-06-22T11:46:07;99514.19;;;34.09;39.44
2681;BME280;1350;42.134;24.708;2023-06-22T11:48:34;99530.78;;;34.02;40.29
2681;BME280;1350;42.134;24.708;2023-06-22T11:51:01;99525.63;;;33.88;39.79
2681;BME280;1350;42.134;24.708;2023-06-22T11:53:29;99524.72;;;33.94;40.25
2681;BME280;1350;42.134;24.708;2023-06-22T11:55:56;99534.91;;;34.11;39.90
2681;BME280;1350;42.134;24.708;2023-06-22T11:58:22;99519.81;;;34.14;39.22
2681;BME280;1350;42.134;24.708;2023-06-22T12:00:49;99521.06;;;34.00;40.59
2681;BME280;1350;42.134;24.708;2023-06-22T12:03:19;99508.75;;;34.32;41.09
2681;BME280;1350;42.134;24.708;2023-06-22T12:05:46;99517.00;;;34.62;39.09
2681;BME280;1350;42.134;24.708;2023-06-22T12:08:13;99511.88;;;34.77;39.68
2681;BME280;1350;42.134;24.708;2023-06-22T12:10:40;99510.63;;;34.91;39.14
2681;BME280;1350;42.134;24.708;2023-06-22T12:13:07;99508.00;;;35.19;40.20
2681;BME280;1350;42.134;24.708;2023-06-22T12:15:34;99511.63;;;34.37;39.50
2681;BME280;1350;42.134;24.708;2023-06-22T12:18:00;99502.59;;;33.89;39.86
2681;BME280;1350;42.134;24.708;2023-06-22T12:20:29;99500.63;;;34.07;39.93
2681;BME280;1350;42.134;24.708;2023-06-22T12:22:56;99494.06;;;34.08;40.31
2681;BME280;1350;42.134;24.708;2023-06-22T12:25:23;99495.56;;;34.04;40.68
2681;BME280;1350;42.134;24.708;2023-06-22T12:27:50;99487.81;;;33.65;41.06
2681;BME280;1350;42.134;24.708;2023-06-22T12:30:17;99494.72;;;33.56;40.82
2681;BME280;1350;42.134;24.708;2023-06-22T12:32:43;99487.44;;;33.98;41.04
2681;BME280;1350;42.134;24.708;2023-06-22T12:35:10;99488.16;;;34.05;40.67
2681;BME280;1350;42.134;24.708;2023-06-22T12:37:40;99479.03;;;33.75;40.72
2681;BME280;1350;42.134;24.708;2023-06-22T12:40:09;99478.25;;;33.86;41.18
2681;BME280;1350;42.134;24.708;2023-06-22T12:42:36;99486.50;;;33.86;42.15
2681;BME280;1350;42.134;24.708;2023-06-22T12:45:04;99485.91;;;33.66;41.85
2681;BME280;1350;42.134;24.708;2023-06-22T12:47:31;99478.69;;;33.29;40.74
2681;BME280;1350;42.134;24.708;2023-06-22T12:49:57;99477.38;;;33.31;41.16
2681;BME280;1350;42.134;24.708;2023-06-22T12:52:24;99466.81;;;33.53;40.88
2681;BME280;1350;42.134;24.708;2023-06-22T12:54:52;99468.31;;;33.67;40.84
2681;BME280;1350;42.134;24.708;2023-06-22T12:57:19;99470.66;;;33.81;41.19
2681;BME280;1350;42.134;24.708;2023-06-22T12:59:46;99469.03;;;33.62;41.76
2681;BME280;1350;42.134;24.708;2023-06-22T13:02:13;99465.47;;;33.37;41.87
2681;BME280;1350;42.134;24.708;2023-06-22T13:04:40;99469.78;;;33.51;41.87
2681;BME280;1350;42.134;24.708;2023-06-22T13:07:08;99479.22;;;33.37;43.09
2681;BME280;1350;42.134;24.708;2023-06-22T13:09:36;99476.63;;;33.24;43.88